createdAt,value
2019-05-03T00:01:36.608Z,10.36
2019-05-03T00:04:07.657Z,10.36
2019-05-03T00:06:37.387Z,10.30
2019-05-03T00:09:11.814Z,10.24
2019-05-03T00:11:42.214Z,10.15
2019-05-03T00:14:12.456Z,9.90
2019-05-03T00:16:43.910Z,9.90
2019-05-03T00:19:13.395Z,9.99
2019-05-03T00:21:42.732Z,9.92
2019-05-03T00:24:11.939Z,9.87
2019-05-03T00:26:42.364Z,9.84
2019-05-03T00:29:12.725Z,9.80
2019-05-03T00:31:42.358Z,9.80
2019-05-03T00:34:15.411Z,9.78
2019-05-03T00:36:49.071Z,9.78
2019-05-03T00:39:26.503Z,9.78
2019-05-03T00:41:56.004Z,9.67
2019-05-03T00:44:25.443Z,9.67
2019-05-03T00:46:54.758Z,9.82
2019-05-03T00:49:26.879Z,9.82
2019-05-03T00:51:56.288Z,9.77
2019-05-03T00:54:25.185Z,9.70
2019-05-03T00:56:54.571Z,9.51
2019-05-03T00:59:23.966Z,9.59
2019-05-03T01:01:53.526Z,9.56
2019-05-03T01:04:22.909Z,9.56
2019-05-03T01:06:52.687Z,9.57
2019-05-03T01:09:23.603Z,9.45
2019-05-03T01:11:52.947Z,9.45
2019-05-03T01:14:22.675Z,9.52
2019-05-03T01:16:52.283Z,9.47
2019-05-03T01:19:22.707Z,9.47
2019-05-03T01:21:52.228Z,9.45
2019-05-03T01:24:21.958Z,9.42
2019-05-03T01:26:52.555Z,9.42
2019-05-03T01:29:22.779Z,9.45
2019-05-03T01:31:52.813Z,9.42
2019-05-03T01:34:22.897Z,9.42
2019-05-03T01:36:53.234Z,9.39
2019-05-03T01:39:22.595Z,9.39
2019-05-03T01:41:52.137Z,9.37
2019-05-03T01:44:21.995Z,9.38
2019-05-03T01:46:53.227Z,9.34
2019-05-03T01:49:29.346Z,9.34
2019-05-03T01:52:24.026Z,9.34
2019-05-03T01:54:53.212Z,9.33
2019-05-03T01:57:22.967Z,9.33
2019-05-03T01:59:52.324Z,9.36
2019-05-03T02:02:49.689Z,9.39
2019-05-03T02:05:42.878Z,9.42
2019-05-03T02:08:14.102Z,9.48
2019-05-03T02:10:43.949Z,9.48
2019-05-03T02:13:13.212Z,9.62
2019-05-03T02:15:42.524Z,9.75
2019-05-03T02:18:14.976Z,10.00
2019-05-03T02:20:43.042Z,10.09
2019-05-03T02:23:12.605Z,10.09
2019-05-03T02:25:42.069Z,10.30
2019-05-03T02:28:12.606Z,10.30
2019-05-03T02:30:44.259Z,10.33
2019-05-03T02:33:14.512Z,10.37
2019-05-03T02:35:43.917Z,10.42
2019-05-03T02:38:14.315Z,10.42
2019-05-03T02:40:43.730Z,10.45
2019-05-03T02:43:19.201Z,10.45
2019-05-03T02:45:59.460Z,10.47
2019-05-03T02:48:36.469Z,10.45
2019-05-03T02:51:09.459Z,10.41
2019-05-03T02:53:38.842Z,10.31
2019-05-03T02:56:18.266Z,10.25
2019-05-03T02:58:40.613Z,10.25
2019-05-03T03:01:10.102Z,10.18
2019-05-03T03:03:39.734Z,10.14
2019-05-03T03:06:09.089Z,10.08
2019-05-03T03:08:39.259Z,10.08
2019-05-03T03:11:09.546Z,10.09
2019-05-03T03:13:39.259Z,10.15
2019-05-03T03:16:10.243Z,10.38
2019-05-03T03:18:40.560Z,10.38
2019-05-03T03:21:16.134Z,10.59
2019-05-03T03:23:56.425Z,10.76
2019-05-03T03:26:37.727Z,10.98
2019-05-03T03:29:05.675Z,10.98
2019-05-03T03:32:09.635Z,10.98
2019-05-03T03:34:49.940Z,10.83
2019-05-03T03:37:15.556Z,10.83
2019-05-03T03:39:45.921Z,10.71
2019-05-03T03:42:16.343Z,10.64
2019-05-03T03:44:45.927Z,10.61
2019-05-03T03:47:16.982Z,10.60
2019-05-03T03:49:46.952Z,10.59
2019-05-03T03:52:16.641Z,10.60
2019-05-03T03:54:46.093Z,10.65
2019-05-03T03:57:18.028Z,10.68
2019-05-03T03:59:47.459Z,10.69
2019-05-03T04:02:17.041Z,10.72
2019-05-03T04:04:46.811Z,10.74
2019-05-03T04:07:16.368Z,10.77
2019-05-03T04:09:45.976Z,10.84
2019-05-03T04:12:16.408Z,10.94
2019-05-03T04:14:56.259Z,10.98
2019-05-03T04:17:57.037Z,11.03
2019-05-03T04:20:29.325Z,11.17
2019-05-03T04:22:58.721Z,11.17
2019-05-03T04:25:28.141Z,11.30
2019-05-03T04:27:57.508Z,11.30
2019-05-03T04:30:27.119Z,11.37
2019-05-03T04:32:56.815Z,11.45
2019-05-03T04:35:26.749Z,11.55
2019-05-03T04:37:56.311Z,11.66
2019-05-03T04:40:26.308Z,11.79
2019-05-03T04:42:56.713Z,11.91
2019-05-03T04:45:27.768Z,12.03
2019-05-03T04:47:57.060Z,12.11
2019-05-03T04:50:26.676Z,12.19
2019-05-03T04:52:56.933Z,12.25
2019-05-03T04:55:27.092Z,12.36
2019-05-03T04:57:57.116Z,12.42
2019-05-03T05:00:26.870Z,12.55
2019-05-03T05:02:56.123Z,12.75
2019-05-03T05:05:26.385Z,12.75
2019-05-03T05:07:56.031Z,13.01
2019-05-03T05:10:26.421Z,13.01
2019-05-03T05:12:57.354Z,13.17
2019-05-03T05:15:26.871Z,13.36
2019-05-03T05:18:15.945Z,13.50
2019-05-03T05:21:04.614Z,13.52
2019-05-03T05:23:35.389Z,13.66
2019-05-03T05:26:14.501Z,13.62
2019-05-03T05:28:49.169Z,13.65
2019-05-03T05:31:18.675Z,13.67
2019-05-03T05:33:48.447Z,13.73
2019-05-03T05:36:17.852Z,13.77
2019-05-03T05:38:47.720Z,13.80
2019-05-03T05:41:16.976Z,13.93
2019-05-03T05:43:46.174Z,14.16
2019-05-03T05:46:16.146Z,14.38
2019-05-03T05:48:48.998Z,14.53
2019-05-03T05:51:19.269Z,14.66
2019-05-03T05:53:48.668Z,14.82
2019-05-03T05:56:39.362Z,14.90
2019-05-03T05:59:30.043Z,15.00
2019-05-03T06:02:06.423Z,15.13
2019-05-03T06:04:35.832Z,15.20
2019-05-03T06:07:24.818Z,15.22
2019-05-03T06:10:18.050Z,15.11
2019-05-03T06:12:54.435Z,14.89
2019-05-03T06:15:39.088Z,14.67
2019-05-03T06:18:14.728Z,14.51
2019-05-03T06:21:04.516Z,14.37
2019-05-03T06:23:38.510Z,14.23
2019-05-03T06:26:27.003Z,14.13
2019-05-03T06:28:58.133Z,14.09
2019-05-03T06:31:37.178Z,14.02
2019-05-03T06:34:06.921Z,13.99
2019-05-03T06:36:37.169Z,14.03
2019-05-03T06:39:08.723Z,13.99
2019-05-03T06:41:38.842Z,13.90
2019-05-03T06:44:08.452Z,13.70
2019-05-03T06:46:45.478Z,13.81
2019-05-03T06:49:16.357Z,13.81
2019-05-03T06:51:49.814Z,13.88
2019-05-03T06:54:20.502Z,14.05
2019-05-03T06:56:50.399Z,14.23
2019-05-03T06:59:27.917Z,14.40
2019-05-03T07:02:16.271Z,14.44
2019-05-03T07:04:48.024Z,14.43
2019-05-03T07:07:35.411Z,14.51
2019-05-03T07:10:17.534Z,14.67
2019-05-03T07:12:59.927Z,14.97
2019-05-03T07:15:30.009Z,15.21
2019-05-03T07:18:01.928Z,15.22
2019-05-03T07:20:56.750Z,15.06
2019-05-03T07:23:25.954Z,14.80
2019-05-03T07:25:56.077Z,14.35
2019-05-03T07:28:27.272Z,14.35
2019-05-03T07:30:57.248Z,14.14
2019-05-03T07:33:31.820Z,14.06
2019-05-03T07:36:01.846Z,14.07
2019-05-03T07:38:31.901Z,14.21
2019-05-03T07:41:01.925Z,14.49
2019-05-03T07:43:31.972Z,14.85
2019-05-03T07:46:05.454Z,15.23
2019-05-03T07:48:35.465Z,15.57
2019-05-03T07:51:05.625Z,15.85
2019-05-03T07:53:35.911Z,16.03
2019-05-03T07:56:15.453Z,16.15
2019-05-03T07:59:02.598Z,16.16
2019-05-03T08:01:35.538Z,16.11
2019-05-03T08:04:06.532Z,16.16
2019-05-03T08:06:37.178Z,16.21
2019-05-03T08:09:09.185Z,16.11
2019-05-03T08:11:56.589Z,15.93
2019-05-03T08:14:31.241Z,15.82
2019-05-03T08:17:05.106Z,15.67
2019-05-03T08:19:37.742Z,15.44
2019-05-03T08:22:10.019Z,15.57
2019-05-03T08:24:39.649Z,15.74
2019-05-03T08:27:09.787Z,16.00
2019-05-03T08:29:43.062Z,16.25
2019-05-03T08:32:35.284Z,16.32
2019-05-03T08:35:27.519Z,16.02
2019-05-03T08:37:59.001Z,15.82
2019-05-03T08:40:34.998Z,15.97
2019-05-03T08:43:05.153Z,16.19
2019-05-03T08:45:35.351Z,16.34
2019-05-03T08:48:09.061Z,16.47
2019-05-03T08:50:39.968Z,16.64
2019-05-03T08:53:15.574Z,16.58
2019-05-03T08:55:45.128Z,16.27
2019-05-03T08:58:15.590Z,16.03
2019-05-03T09:00:46.011Z,15.99
2019-05-03T09:03:16.015Z,16.18
2019-05-03T09:05:47.353Z,16.34
2019-05-03T09:08:20.217Z,16.46
2019-05-03T09:11:05.083Z,16.67
2019-05-03T09:13:55.596Z,16.89
2019-05-03T09:16:25.123Z,16.77
2019-05-03T09:18:56.928Z,16.42
2019-05-03T09:21:27.064Z,16.23
2019-05-03T09:24:02.170Z,16.22
2019-05-03T09:26:32.194Z,16.37
2019-05-03T09:29:05.400Z,16.44
2019-05-03T09:31:35.880Z,16.54
2019-05-03T09:34:11.687Z,16.82
2019-05-03T09:36:42.056Z,17.17
2019-05-03T09:39:12.151Z,17.28
2019-05-03T09:41:45.153Z,17.32
2019-05-03T09:44:19.321Z,17.24
2019-05-03T09:46:49.559Z,17.14
2019-05-03T09:49:21.009Z,17.24
2019-05-03T09:51:51.356Z,17.22
2019-05-03T09:54:29.185Z,17.24
2019-05-03T09:57:02.516Z,17.26
2019-05-03T09:59:35.160Z,17.25
2019-05-03T10:02:05.410Z,17.16
2019-05-03T10:04:38.294Z,17.08
2019-05-03T10:07:10.824Z,17.25
2019-05-03T10:09:55.040Z,17.62
2019-05-03T10:12:25.763Z,18.05
2019-05-03T10:14:56.126Z,18.29
2019-05-03T10:17:47.458Z,18.34
2019-05-03T10:20:20.053Z,18.15
2019-05-03T10:22:54.450Z,18.10
2019-05-03T10:25:24.829Z,18.02
2019-05-03T10:27:59.762Z,18.03
2019-05-03T10:30:29.801Z,18.00
2019-05-03T10:33:21.814Z,17.73
2019-05-03T10:35:54.609Z,17.61
2019-05-03T10:39:06.385Z,17.67
2019-05-03T10:41:42.187Z,17.58
2019-05-03T10:44:35.949Z,17.84
2019-05-03T10:47:06.289Z,18.13
2019-05-03T10:49:38.066Z,18.13
2019-05-03T10:52:45.390Z,18.00
2019-05-03T10:55:18.929Z,17.75
2019-05-03T10:58:26.913Z,17.59
2019-05-03T11:01:01.940Z,17.40
2019-05-03T11:03:34.318Z,17.33
2019-05-03T11:06:07.379Z,17.25
2019-05-03T11:09:00.597Z,17.17
2019-05-03T11:11:56.356Z,17.14
2019-05-03T11:14:28.237Z,17.29
2019-05-03T11:17:05.712Z,17.42
2019-05-03T11:19:37.349Z,17.62
2019-05-03T11:22:25.204Z,17.83
2019-05-03T11:25:07.069Z,18.04
2019-05-03T11:27:58.416Z,18.58
2019-05-03T11:30:56.489Z,19.31
2019-05-03T11:33:35.343Z,20.03
2019-05-03T11:36:51.432Z,20.35
2019-05-03T11:39:50.364Z,20.27
2019-05-03T11:42:49.760Z,20.04
2019-05-03T11:46:01.531Z,19.74
2019-05-03T11:48:35.482Z,19.44
2019-05-03T11:51:06.857Z,19.08
2019-05-03T11:53:51.854Z,18.65
2019-05-03T11:56:47.945Z,18.31
2019-05-03T11:59:28.474Z,18.05
2019-05-03T12:02:44.774Z,17.79
2019-05-03T12:05:24.489Z,17.58
2019-05-03T12:08:25.184Z,17.47
2019-05-03T12:11:01.844Z,17.42
2019-05-03T12:14:02.352Z,17.45
2019-05-03T12:17:11.955Z,17.78
2019-05-03T12:19:36.419Z,18.79
2019-05-03T12:22:17.020Z,19.90
2019-05-03T12:24:56.805Z,21.35
2019-05-03T12:27:48.909Z,22.38
2019-05-03T12:31:06.600Z,24.14
2019-05-03T12:33:42.984Z,24.46
2019-05-03T12:36:11.492Z,23.57
2019-05-03T12:38:43.554Z,23.33
2019-05-03T12:41:20.298Z,21.64
2019-05-03T12:44:16.783Z,20.74
2019-05-03T12:47:06.025Z,19.96
2019-05-03T12:50:19.156Z,19.31
2019-05-03T12:53:15.164Z,18.77
2019-05-03T12:55:59.893Z,18.24
2019-05-03T12:58:55.211Z,17.81
2019-05-03T13:02:04.828Z,17.49
2019-05-03T13:04:37.633Z,17.23
2019-05-03T13:07:34.992Z,17.06
2019-05-03T13:10:06.914Z,16.95
2019-05-03T13:13:01.877Z,17.15
2019-05-03T13:16:04.596Z,16.98
2019-05-03T13:18:42.746Z,16.99
2019-05-03T13:21:40.565Z,16.95
2019-05-03T13:24:49.208Z,16.92
2019-05-03T13:27:35.023Z,16.88
2019-05-03T13:30:08.011Z,16.95
2019-05-03T13:33:02.643Z,17.04
2019-05-03T13:35:55.140Z,17.22
2019-05-03T13:38:29.231Z,17.59
2019-05-03T13:41:38.453Z,17.92
2019-05-03T13:44:29.659Z,18.33
2019-05-03T13:47:24.720Z,19.39
2019-05-03T13:50:17.096Z,19.98
2019-05-03T13:53:10.144Z,22.15
2019-05-03T13:56:26.144Z,25.36
2019-05-03T13:59:00.576Z,27.16
2019-05-03T14:01:35.735Z,25.61
2019-05-03T14:04:06.892Z,24.05
2019-05-03T14:06:44.688Z,23.56
2019-05-03T14:09:15.781Z,21.75
2019-05-03T14:12:05.612Z,21.03
2019-05-03T14:15:11.367Z,20.40
2019-05-03T14:17:49.815Z,20.00
2019-05-03T14:20:41.075Z,19.76
2019-05-03T14:23:58.279Z,19.58
2019-05-03T14:26:29.739Z,19.46
2019-05-03T14:29:00.274Z,19.20
2019-05-03T14:32:07.052Z,19.07
2019-05-03T14:34:58.659Z,19.00
2019-05-03T14:38:12.221Z,19.95
2019-05-03T14:41:02.721Z,20.04
2019-05-03T14:43:56.720Z,19.54
2019-05-03T14:46:36.063Z,19.00
2019-05-03T14:49:38.594Z,18.58
2019-05-03T14:52:10.534Z,18.29
2019-05-03T14:55:07.538Z,18.14
2019-05-03T14:58:03.419Z,17.91
2019-05-03T15:01:01.113Z,17.77
2019-05-03T15:03:35.078Z,17.63
2019-05-03T15:06:11.031Z,17.46
2019-05-03T15:09:27.054Z,17.31
2019-05-03T15:12:08.440Z,17.19
2019-05-03T15:15:06.530Z,17.04
2019-05-03T15:18:08.374Z,16.99
2019-05-03T15:20:41.589Z,17.03
2019-05-03T15:23:36.647Z,17.08
2019-05-03T15:26:37.326Z,17.08
2019-05-03T15:29:36.956Z,17.18
2019-05-03T15:32:57.804Z,17.27
2019-05-03T15:35:29.037Z,17.10
2019-05-03T15:38:19.350Z,16.88
2019-05-03T15:41:02.462Z,16.61
2019-05-03T15:44:06.407Z,16.41
2019-05-03T15:47:09.135Z,16.34
2019-05-03T15:49:48.017Z,16.33
2019-05-03T15:52:38.328Z,16.11
2019-05-03T15:55:12.527Z,15.97
2019-05-03T15:58:06.231Z,15.76
2019-05-03T16:01:19.068Z,15.68
2019-05-03T16:03:55.615Z,15.50
2019-05-03T16:06:56.005Z,15.35
2019-05-03T16:10:07.634Z,15.27
2019-05-03T16:12:59.824Z,15.18
2019-05-03T16:15:51.365Z,15.08
2019-05-03T16:19:05.402Z,15.04
2019-05-03T16:22:05.713Z,14.97
2019-05-03T16:25:04.965Z,14.90
2019-05-03T16:27:52.554Z,14.84
2019-05-03T16:31:10.295Z,14.85
2019-05-03T16:33:47.088Z,14.80
2019-05-03T16:36:59.759Z,14.80
2019-05-03T16:40:16.754Z,14.72
2019-05-03T16:43:16.154Z,14.71
2019-05-03T16:46:20.175Z,14.64
2019-05-03T16:49:11.176Z,14.77
2019-05-03T16:52:10.239Z,14.59
2019-05-03T16:54:54.718Z,14.59
2019-05-03T16:57:51.008Z,14.56
2019-05-03T17:00:44.610Z,14.53
2019-05-03T17:03:55.902Z,14.30
2019-05-03T17:06:49.016Z,14.05
2019-05-03T17:10:15.343Z,13.48
2019-05-03T17:13:22.522Z,13.00
2019-05-03T17:16:16.803Z,12.62
2019-05-03T17:19:24.232Z,12.20
2019-05-03T17:23:07.030Z,11.95
2019-05-03T17:26:17.553Z,11.72
2019-05-03T17:29:24.593Z,11.24
2019-05-03T17:32:44.449Z,10.96
2019-05-03T17:36:14.653Z,10.67
2019-05-03T17:39:14.999Z,10.46
2019-05-03T17:41:59.479Z,10.31
2019-05-03T17:44:58.853Z,10.17
2019-05-03T17:47:34.731Z,10.11
2019-05-03T17:50:38.629Z,10.00
2019-05-03T17:53:46.595Z,9.88
2019-05-03T17:56:59.690Z,9.88
2019-05-03T18:00:17.232Z,9.82
2019-05-03T18:03:14.663Z,9.77
2019-05-03T18:06:36.655Z,9.69
2019-05-03T18:09:34.439Z,9.66
2019-05-03T18:12:26.374Z,9.63
2019-05-03T18:15:20.258Z,9.63
2019-05-03T18:18:58.658Z,9.67
2019-05-03T18:21:57.720Z,9.60
2019-05-03T18:24:46.570Z,9.57
2019-05-03T18:27:49.443Z,9.57
2019-05-03T18:30:40.650Z,9.60
2019-05-03T18:33:15.383Z,9.60
2019-05-03T18:36:05.588Z,9.80
2019-05-03T18:39:00.353Z,9.93
2019-05-03T18:41:49.326Z,10.07
2019-05-03T18:45:07.215Z,10.18
2019-05-03T18:48:15.317Z,10.21
2019-05-03T18:51:27.235Z,10.30
2019-05-03T18:54:38.499Z,10.30
2019-05-03T18:57:48.940Z,10.30
2019-05-03T19:00:24.675Z,10.28
2019-05-03T19:03:03.033Z,10.28
2019-05-03T19:05:35.211Z,10.33
2019-05-03T19:08:44.789Z,10.33
2019-05-03T19:11:46.390Z,10.35
2019-05-03T19:14:21.435Z,10.37
2019-05-03T19:17:11.433Z,10.44
2019-05-03T19:19:45.665Z,10.44
2019-05-03T19:22:34.659Z,10.46
2019-05-03T19:25:25.491Z,10.52
2019-05-03T19:28:45.642Z,10.52
2019-05-03T19:31:37.521Z,10.55
2019-05-03T19:34:08.993Z,10.58
2019-05-03T19:36:48.168Z,10.60
2019-05-03T19:39:58.515Z,10.64
2019-05-03T19:42:35.239Z,10.64
2019-05-03T19:45:08.930Z,10.68
2019-05-03T19:47:46.290Z,10.69
2019-05-03T19:50:18.092Z,10.71
2019-05-03T19:53:50.029Z,10.72
2019-05-03T19:56:21.721Z,10.72
2019-05-03T19:58:58.643Z,10.74
2019-05-03T20:01:46.282Z,10.75
2019-05-03T20:04:38.402Z,10.75
2019-05-03T20:07:28.264Z,10.75
2019-05-03T20:09:59.091Z,10.76
2019-05-03T20:12:49.926Z,10.76
2019-05-03T20:15:19.806Z,10.75
2019-05-03T20:18:00.460Z,10.72
2019-05-03T20:20:32.178Z,10.69
2019-05-03T20:23:08.105Z,10.69
2019-05-03T20:25:40.441Z,10.72
2019-05-03T20:28:10.327Z,10.72
2019-05-03T20:30:40.533Z,10.71
2019-05-03T20:33:12.817Z,10.67
2019-05-03T20:35:45.394Z,10.67
2019-05-03T20:38:16.931Z,10.70
2019-05-03T20:40:46.764Z,10.70
2019-05-03T20:43:25.754Z,10.69
2019-05-03T20:46:21.418Z,10.69
2019-05-03T20:48:53.358Z,10.56
2019-05-03T20:51:27.676Z,10.51
2019-05-03T20:53:58.106Z,10.46
2019-05-03T20:56:30.350Z,10.27
2019-05-03T20:59:03.080Z,10.27
2019-05-03T21:01:36.296Z,10.35
2019-05-03T21:04:06.966Z,10.35
2019-05-03T21:06:37.820Z,10.36
2019-05-03T21:09:08.617Z,10.34
2019-05-03T21:11:40.112Z,10.37
2019-05-03T21:14:09.593Z,10.29
2019-05-03T21:16:57.838Z,10.26
2019-05-03T21:19:48.595Z,10.29
2019-05-03T21:22:32.091Z,10.21
2019-05-03T21:25:08.363Z,10.21
2019-05-03T21:27:37.905Z,10.20
2019-05-03T21:30:07.494Z,10.13
2019-05-03T21:32:37.032Z,9.93
2019-05-03T21:35:07.577Z,9.93
2019-05-03T21:37:37.586Z,9.93
2019-05-03T21:40:07.475Z,9.93
2019-05-03T21:42:37.422Z,9.96
2019-05-03T21:45:09.385Z,10.00
2019-05-03T21:48:05.975Z,10.02
2019-05-03T21:50:35.606Z,10.02
2019-05-03T21:53:05.923Z,10.06
2019-05-03T21:55:37.144Z,10.06
2019-05-03T21:58:06.734Z,10.06
2019-05-03T22:00:49.839Z,10.06
2019-05-03T22:03:19.528Z,10.07
2019-05-03T22:05:55.019Z,10.08
2019-05-03T22:08:22.042Z,10.09
2019-05-03T22:10:51.576Z,10.07
2019-05-03T22:13:21.987Z,10.05
2019-05-03T22:16:04.913Z,10.03
2019-05-03T22:18:35.172Z,10.04
2019-05-03T22:21:22.637Z,10.04
2019-05-03T22:24:25.563Z,9.99
2019-05-03T22:26:58.569Z,9.98
2019-05-03T22:29:28.628Z,9.98
2019-05-03T22:32:01.682Z,9.93
2019-05-03T22:34:31.518Z,9.94
2019-05-03T22:37:01.420Z,9.90
2019-05-03T22:39:30.689Z,9.97
2019-05-03T22:42:00.900Z,9.92
2019-05-03T22:44:35.466Z,9.90
2019-05-03T22:47:07.852Z,9.91
2019-05-03T22:49:37.906Z,9.91
2019-05-03T22:52:07.384Z,9.89
2019-05-03T22:54:40.620Z,9.89
2019-05-03T22:57:10.138Z,9.89
2019-05-03T22:59:41.892Z,9.87
2019-05-03T23:02:11.332Z,9.84
2019-05-03T23:04:41.389Z,9.82
2019-05-03T23:07:11.061Z,9.73
2019-05-03T23:09:40.631Z,9.73
2019-05-03T23:12:10.113Z,9.67
2019-05-03T23:14:40.147Z,9.62
2019-05-03T23:17:11.209Z,9.56
2019-05-03T23:19:44.867Z,9.50
2019-05-03T23:22:18.674Z,9.46
2019-05-03T23:24:50.512Z,9.41
2019-05-03T23:27:21.757Z,9.42
2019-05-03T23:29:51.063Z,9.38
2019-05-03T23:32:20.495Z,9.38
2019-05-03T23:34:49.788Z,9.36
2019-05-03T23:37:18.988Z,9.40
2019-05-03T23:39:48.306Z,9.40
2019-05-03T23:42:17.392Z,9.39
2019-05-03T23:44:47.352Z,9.39
2019-05-03T23:47:34.367Z,9.40
2019-05-03T23:50:05.232Z,9.39
2019-05-03T23:52:38.660Z,9.39
2019-05-03T23:55:30.453Z,9.43
2019-05-03T23:58:00.857Z,9.40
